createdAt,value
2023-02-16T00:01:29.999Z,94.82
2023-02-16T00:04:29.254Z,93.25
2023-02-16T00:07:19.365Z,101.43
2023-02-16T00:10:12.688Z,99.75
2023-02-16T00:13:34.870Z,102.97
2023-02-16T00:16:25.118Z,96.43
2023-02-16T00:19:22.346Z,106.18
2023-02-16T00:22:12.735Z,105.18
2023-02-16T00:25:02.717Z,103.07
2023-02-16T00:27:53.084Z,98.03
2023-02-16T00:30:43.309Z,94.30
2023-02-16T00:33:33.274Z,92.18
2023-02-16T00:36:23.491Z,98.93
2023-02-16T00:39:13.599Z,99.57
2023-02-16T00:42:07.132Z,89.72
2023-02-16T00:44:58.688Z,94.72
2023-02-16T00:47:51.733Z,92.45
2023-02-16T00:50:41.929Z,96.83
2023-02-16T00:53:32.701Z,88.20
2023-02-16T00:56:22.745Z,91.10
2023-02-16T00:59:20.548Z,87.10
2023-02-16T01:02:11.290Z,88.10
2023-02-16T01:05:01.337Z,79.00
2023-02-16T01:08:09.954Z,81.05
2023-02-16T01:11:10.022Z,87.47
2023-02-16T01:14:00.219Z,88.05
2023-02-16T01:16:50.620Z,78.90
2023-02-16T01:19:41.229Z,81.40
2023-02-16T01:22:33.439Z,84.30
2023-02-16T01:25:23.790Z,77.68
2023-02-16T01:28:24.839Z,80.30
2023-02-16T01:31:16.220Z,82.53
2023-02-16T01:34:06.251Z,82.43
2023-02-16T01:36:56.704Z,75.50
2023-02-16T01:39:46.572Z,88.35
2023-02-16T01:43:00.690Z,91.32
2023-02-16T01:46:06.004Z,98.45
2023-02-16T01:48:56.055Z,86.45
2023-02-16T01:51:49.515Z,86.07
2023-02-16T01:54:58.025Z,94.28
2023-02-16T01:57:54.283Z,93.53
2023-02-16T02:00:53.253Z,92.03
2023-02-16T02:04:02.448Z,86.85
2023-02-16T02:06:52.612Z,85.63
2023-02-16T02:09:56.463Z,91.03
2023-02-16T02:13:04.218Z,90.38
2023-02-16T02:15:58.207Z,84.40
2023-02-16T02:18:49.676Z,86.05
2023-02-16T02:22:02.959Z,83.80
2023-02-16T02:25:04.571Z,74.32
2023-02-16T02:28:12.900Z,79.95
2023-02-16T02:31:10.661Z,80.53
2023-02-16T02:34:17.090Z,86.03
2023-02-16T02:37:19.052Z,87.45
2023-02-16T02:40:21.759Z,82.25
2023-02-16T02:43:21.057Z,87.70
2023-02-16T02:46:19.351Z,88.55
2023-02-16T02:49:10.110Z,84.97
2023-02-16T02:52:00.972Z,82.53
2023-02-16T02:55:10.119Z,93.82
2023-02-16T02:58:20.917Z,88.38
2023-02-16T03:01:13.509Z,91.55
2023-02-16T03:04:06.305Z,97.78
2023-02-16T03:06:58.967Z,88.60
2023-02-16T03:10:08.969Z,86.72
2023-02-16T03:13:01.567Z,91.75
2023-02-16T03:15:57.023Z,92.90
2023-02-16T03:19:06.494Z,82.72
2023-02-16T03:22:15.873Z,89.68
2023-02-16T03:25:25.005Z,87.63
2023-02-16T03:28:36.677Z,90.38
2023-02-16T03:31:32.864Z,82.53
2023-02-16T03:34:24.254Z,82.55
2023-02-16T03:37:15.062Z,83.82
2023-02-16T03:40:27.511Z,88.20
2023-02-16T03:43:18.013Z,83.03
2023-02-16T03:46:08.547Z,87.85
2023-02-16T03:48:58.702Z,84.90
2023-02-16T03:51:48.723Z,88.82
2023-02-16T03:54:39.002Z,87.65
2023-02-16T03:57:29.269Z,81.60
2023-02-16T04:00:19.865Z,81.25
2023-02-16T04:03:10.793Z,87.10
2023-02-16T04:06:01.135Z,89.38
2023-02-16T04:08:51.352Z,80.18
2023-02-16T04:12:00.371Z,87.93
2023-02-16T04:14:50.733Z,81.32
2023-02-16T04:17:40.971Z,79.47
2023-02-16T04:20:32.768Z,80.57
2023-02-16T04:23:23.149Z,77.07
2023-02-16T04:26:13.121Z,85.43
2023-02-16T04:29:03.625Z,84.22
2023-02-16T04:31:53.919Z,81.35
2023-02-16T04:34:43.974Z,80.40
2023-02-16T04:37:34.535Z,82.38
2023-02-16T04:40:25.069Z,75.85
2023-02-16T04:43:15.248Z,80.20
2023-02-16T04:46:05.501Z,82.22
2023-02-16T04:48:55.857Z,75.40
2023-02-16T04:51:46.069Z,81.53
2023-02-16T04:54:36.096Z,87.95
2023-02-16T04:57:26.663Z,79.13
2023-02-16T05:00:17.035Z,81.85
2023-02-16T05:03:07.347Z,82.32
2023-02-16T05:05:57.451Z,78.72
2023-02-16T05:08:47.749Z,84.05
2023-02-16T05:11:56.714Z,81.07
2023-02-16T05:14:46.840Z,89.50
2023-02-16T05:17:37.134Z,85.53
2023-02-16T05:20:47.771Z,84.15
2023-02-16T05:23:39.065Z,89.88
2023-02-16T05:26:29.364Z,89.75
2023-02-16T05:29:19.521Z,86.10
2023-02-16T05:32:09.802Z,89.53
2023-02-16T05:35:00.166Z,83.80
2023-02-16T05:37:50.396Z,86.40
2023-02-16T05:40:40.522Z,76.90
2023-02-16T05:43:30.710Z,84.57
2023-02-16T05:46:23.317Z,87.97
2023-02-16T05:49:14.950Z,71.18
2023-02-16T05:52:05.189Z,76.45
2023-02-16T05:54:55.378Z,77.38
2023-02-16T05:57:45.356Z,92.55
2023-02-16T06:00:36.604Z,79.22
2023-02-16T06:03:26.764Z,74.13
2023-02-16T06:06:16.973Z,82.82
2023-02-16T06:09:09.108Z,83.80
2023-02-16T06:11:59.239Z,78.22
2023-02-16T06:14:49.688Z,77.35
2023-02-16T06:17:40.202Z,71.20
2023-02-16T06:20:30.824Z,89.57
2023-02-16T06:23:21.311Z,92.47
2023-02-16T06:26:11.549Z,80.43
2023-02-16T06:29:01.684Z,87.72
2023-02-16T06:31:52.348Z,80.35
2023-02-16T06:34:42.366Z,78.20
2023-02-16T06:37:32.226Z,91.05
2023-02-16T06:40:22.588Z,100.28
2023-02-16T06:43:13.048Z,89.88
2023-02-16T06:46:03.440Z,87.85
2023-02-16T06:48:53.585Z,78.22
2023-02-16T06:51:44.332Z,74.72
2023-02-16T06:54:34.166Z,86.32
2023-02-16T06:57:25.565Z,93.03
2023-02-16T07:00:16.521Z,83.38
2023-02-16T07:03:06.751Z,89.40
2023-02-16T07:05:56.804Z,81.45
2023-02-16T07:08:47.092Z,90.03
2023-02-16T07:11:37.182Z,79.15
2023-02-16T07:14:27.582Z,81.70
2023-02-16T07:17:18.118Z,85.25
2023-02-16T07:20:08.763Z,78.75
2023-02-16T07:22:58.810Z,84.70
2023-02-16T07:25:48.756Z,71.45
2023-02-16T07:28:38.994Z,75.90
2023-02-16T07:31:29.145Z,78.38
2023-02-16T07:34:20.920Z,78.03
2023-02-16T07:37:13.197Z,79.10
2023-02-16T07:40:04.140Z,86.20
2023-02-16T07:42:54.966Z,74.03
2023-02-16T07:45:45.574Z,74.30
2023-02-16T07:48:36.169Z,74.35
2023-02-16T07:51:29.069Z,83.38
2023-02-16T07:54:19.525Z,77.18
2023-02-16T07:57:09.951Z,84.57
2023-02-16T08:00:00.180Z,76.53
2023-02-16T08:02:50.776Z,83.78
2023-02-16T08:05:41.121Z,75.95
2023-02-16T08:08:32.373Z,75.78
2023-02-16T08:11:25.316Z,67.07
2023-02-16T08:14:16.905Z,67.93
2023-02-16T08:17:08.163Z,60.35
2023-02-16T08:19:58.597Z,69.93
2023-02-16T08:22:49.846Z,65.53
2023-02-16T08:25:40.362Z,55.63
2023-02-16T08:28:30.512Z,51.33
2023-02-16T08:31:24.734Z,52.78
2023-02-16T08:34:17.506Z,44.33
2023-02-16T08:37:07.350Z,51.50
2023-02-16T08:40:00.705Z,41.60
2023-02-16T08:42:51.070Z,39.85
2023-02-16T08:45:47.601Z,39.80
2023-02-16T08:48:39.936Z,42.42
2023-02-16T08:51:32.677Z,35.72
2023-02-16T08:54:27.140Z,45.00
2023-02-16T08:57:18.664Z,36.25
2023-02-16T09:00:27.827Z,41.38
2023-02-16T09:03:19.185Z,39.10
2023-02-16T09:06:12.236Z,42.13
2023-02-16T09:09:02.673Z,42.88
2023-02-16T09:11:53.602Z,36.85
2023-02-16T09:14:44.045Z,32.95
2023-02-16T09:17:34.499Z,36.05
2023-02-16T09:20:24.623Z,36.08
2023-02-16T09:23:15.109Z,34.80
2023-02-16T09:26:09.668Z,37.50
2023-02-16T09:31:50.185Z,35.53
2023-02-16T09:34:40.233Z,35.50
2023-02-16T09:37:30.482Z,31.95
2023-02-16T09:40:21.624Z,34.42
2023-02-16T09:43:41.332Z,35.83
2023-02-16T09:46:33.777Z,32.30
2023-02-16T09:49:32.731Z,39.67
2023-02-16T09:52:37.795Z,35.35
2023-02-16T09:55:39.255Z,30.63
2023-02-16T09:58:40.931Z,31.90
2023-02-16T10:01:41.327Z,30.98
2023-02-16T10:05:08.291Z,30.98
2023-02-16T10:08:11.536Z,28.63
2023-02-16T10:11:35.778Z,32.25
2023-02-16T10:15:01.402Z,28.80
2023-02-16T10:18:05.858Z,30.27
2023-02-16T10:21:19.211Z,31.90
2023-02-16T10:24:12.593Z,30.20
2023-02-16T10:27:14.331Z,28.48
2023-02-16T10:30:12.462Z,29.38
2023-02-16T10:33:15.463Z,30.23
2023-02-16T10:36:23.841Z,32.60
2023-02-16T10:39:31.204Z,34.55
2023-02-16T10:42:28.207Z,37.10
2023-02-16T10:45:27.152Z,44.10
2023-02-16T10:48:17.889Z,33.80
2023-02-16T10:51:12.748Z,31.83
2023-02-16T10:54:17.659Z,32.83
2023-02-16T10:57:24.901Z,34.05
2023-02-16T11:00:23.141Z,36.72
2023-02-16T11:03:15.303Z,30.27
2023-02-16T11:06:22.885Z,31.00
2023-02-16T11:09:15.441Z,37.80
2023-02-16T11:12:16.862Z,31.42
2023-02-16T11:15:27.669Z,31.90
2023-02-16T11:18:58.976Z,28.40
2023-02-16T11:21:59.779Z,29.88
2023-02-16T11:24:50.061Z,26.73
2023-02-16T11:27:52.186Z,25.45
2023-02-16T11:30:43.270Z,22.63
2023-02-16T11:33:34.866Z,30.88
2023-02-16T11:36:46.201Z,31.40
2023-02-16T11:39:39.888Z,29.00
2023-02-16T11:42:35.156Z,26.85
2023-02-16T11:45:31.274Z,28.63
2023-02-16T11:48:28.570Z,23.67
2023-02-16T11:51:34.496Z,25.00
2023-02-16T11:54:24.698Z,24.23
2023-02-16T11:57:15.931Z,28.65
2023-02-16T12:00:22.177Z,24.77
2023-02-16T12:03:31.550Z,39.05
2023-02-16T12:06:43.846Z,26.45
2023-02-16T12:09:45.689Z,23.70
2023-02-16T12:12:57.311Z,27.63
2023-02-16T12:16:23.070Z,22.63
2023-02-16T12:19:45.496Z,25.75
2023-02-16T12:22:50.910Z,31.75
2023-02-16T12:26:07.692Z,24.95
2023-02-16T12:29:12.018Z,23.60
2023-02-16T12:32:25.700Z,23.73
2023-02-16T12:35:46.041Z,26.75
2023-02-16T12:39:11.534Z,23.70
2023-02-16T12:42:32.627Z,18.17
2023-02-16T12:45:26.923Z,24.70
2023-02-16T12:48:32.824Z,26.17
2023-02-16T12:51:28.627Z,15.65
2023-02-16T12:54:33.097Z,17.63
2023-02-16T12:57:31.462Z,21.33
2023-02-16T13:00:39.354Z,13.80
2023-02-16T13:03:42.903Z,19.13
2023-02-16T13:06:42.169Z,15.50
2023-02-16T13:09:44.152Z,20.33
2023-02-16T13:12:47.268Z,18.20
2023-02-16T13:16:00.530Z,17.63
2023-02-16T13:18:53.554Z,18.65
2023-02-16T13:22:01.627Z,17.30
2023-02-16T13:25:22.017Z,26.63
2023-02-16T13:28:45.999Z,18.40
2023-02-16T13:32:05.686Z,18.80
2023-02-16T13:35:14.747Z,15.73
2023-02-16T13:38:04.728Z,15.60
2023-02-16T13:41:30.162Z,17.88
2023-02-16T13:44:51.876Z,17.10
2023-02-16T13:47:42.405Z,16.67
2023-02-16T13:50:33.818Z,16.75
2023-02-16T13:53:24.669Z,18.38
2023-02-16T13:56:31.759Z,18.67
2023-02-16T13:59:22.322Z,17.08
2023-02-16T14:02:12.916Z,15.80
2023-02-16T14:05:10.030Z,18.77
2023-02-16T14:08:14.811Z,15.07
2023-02-16T14:13:56.884Z,16.45
2023-02-16T14:16:47.106Z,15.23
2023-02-16T14:19:37.146Z,15.30
2023-02-16T14:22:34.660Z,12.90
2023-02-16T14:25:32.730Z,15.27
2023-02-16T14:28:22.798Z,11.80
2023-02-16T14:31:18.127Z,18.00
2023-02-16T14:34:36.635Z,16.83
2023-02-16T14:37:30.620Z,11.85
2023-02-16T14:40:39.221Z,11.10
2023-02-16T14:43:41.188Z,13.40
2023-02-16T14:47:28.247Z,11.30
2023-02-16T14:50:30.777Z,8.73
2023-02-16T14:53:32.896Z,10.05
2023-02-16T14:56:38.511Z,12.43
2023-02-16T14:59:54.390Z,9.50
2023-02-16T15:03:15.145Z,7.50
2023-02-16T15:06:06.658Z,8.07
2023-02-16T15:08:59.759Z,7.93
2023-02-16T15:12:22.713Z,7.00
2023-02-16T15:15:20.322Z,10.63
2023-02-16T15:18:23.001Z,7.68
2023-02-16T15:21:22.529Z,4.57
2023-02-16T15:24:25.849Z,12.73
2023-02-16T15:27:23.487Z,5.43
2023-02-16T15:30:25.714Z,7.80
2023-02-16T15:33:23.044Z,8.07
2023-02-16T15:36:19.138Z,6.47
2023-02-16T15:39:45.248Z,8.75
2023-02-16T15:42:45.408Z,4.75
2023-02-16T15:45:38.103Z,6.55
2023-02-16T15:48:35.247Z,7.18
2023-02-16T15:51:34.800Z,6.20
2023-02-16T15:54:28.153Z,7.35
2023-02-16T15:57:31.974Z,10.53
2023-02-16T16:00:23.771Z,8.77
2023-02-16T16:03:17.369Z,8.23
2023-02-16T16:06:09.193Z,9.73
2023-02-16T16:08:59.915Z,8.32
2023-02-16T16:11:51.815Z,7.30
2023-02-16T16:14:48.239Z,6.57
2023-02-16T16:17:39.706Z,9.95
2023-02-16T16:20:37.998Z,12.23
2023-02-16T16:23:28.693Z,10.15
2023-02-16T16:26:21.678Z,8.43
2023-02-16T16:29:34.267Z,7.15
2023-02-16T16:32:28.819Z,12.05
2023-02-16T16:35:33.346Z,11.98
2023-02-16T16:41:27.716Z,9.52
2023-02-16T16:44:39.569Z,13.15
2023-02-16T16:47:38.092Z,10.35
2023-02-16T16:50:33.389Z,14.73
2023-02-16T16:53:29.571Z,15.73
2023-02-16T16:56:20.221Z,19.95
2023-02-16T16:59:10.294Z,14.07
2023-02-16T17:02:00.340Z,25.02
2023-02-16T17:04:50.706Z,19.15
2023-02-16T17:07:41.330Z,16.80
2023-02-16T17:10:31.677Z,14.80
2023-02-16T17:13:21.722Z,15.68
2023-02-16T17:16:20.721Z,18.08
2023-02-16T17:19:16.785Z,18.02
2023-02-16T17:22:15.591Z,16.48
2023-02-16T17:25:06.062Z,20.23
2023-02-16T17:27:57.397Z,20.02
2023-02-16T17:30:47.383Z,19.52
2023-02-16T17:33:37.529Z,14.82
2023-02-16T17:36:28.528Z,16.63
2023-02-16T17:39:18.936Z,19.10
2023-02-16T17:42:13.210Z,17.85
2023-02-16T17:45:03.387Z,17.33
2023-02-16T17:47:53.451Z,18.10
2023-02-16T17:50:44.067Z,25.58
2023-02-16T17:53:34.339Z,15.82
2023-02-16T17:56:25.091Z,21.73
2023-02-16T17:59:15.518Z,25.73
2023-02-16T18:02:08.776Z,30.50
2023-02-16T18:04:59.140Z,26.75
2023-02-16T18:07:49.380Z,22.45
2023-02-16T18:10:45.609Z,19.92
2023-02-16T18:13:35.943Z,23.63
2023-02-16T18:16:27.665Z,14.73
2023-02-16T18:19:19.374Z,14.27
2023-02-16T18:22:09.794Z,16.63
2023-02-16T18:24:59.857Z,9.70
2023-02-16T18:27:50.650Z,12.02
2023-02-16T18:30:41.383Z,14.25
2023-02-16T18:33:34.006Z,6.60
2023-02-16T18:36:24.884Z,8.38
2023-02-16T18:39:14.741Z,9.73
2023-02-16T18:42:05.465Z,7.85
2023-02-16T18:44:55.531Z,8.00
2023-02-16T18:48:02.916Z,10.45
2023-02-16T18:50:53.243Z,7.13
2023-02-16T18:53:43.782Z,8.23
2023-02-16T18:56:35.494Z,14.07
2023-02-16T18:59:25.826Z,17.60
2023-02-16T19:02:16.354Z,16.25
2023-02-16T19:05:08.072Z,16.75
2023-02-16T19:07:58.150Z,16.60
2023-02-16T19:10:48.625Z,20.08
2023-02-16T19:13:39.916Z,18.67
2023-02-16T19:16:34.000Z,23.48
2023-02-16T19:19:24.477Z,21.30
2023-02-16T19:22:14.927Z,15.23
2023-02-16T19:25:06.675Z,25.65
2023-02-16T19:27:57.067Z,31.05
2023-02-16T19:30:49.339Z,33.60
2023-02-16T19:33:41.438Z,34.20
2023-02-16T19:36:33.463Z,42.58
2023-02-16T19:39:24.179Z,29.42
2023-02-16T19:42:15.137Z,28.40
2023-02-16T19:45:06.115Z,31.33
2023-02-16T19:47:56.553Z,30.23
2023-02-16T19:50:46.590Z,35.40
2023-02-16T19:53:38.492Z,31.88
2023-02-16T19:56:28.800Z,34.00
2023-02-16T19:59:18.849Z,31.02
2023-02-16T20:02:11.422Z,28.80
2023-02-16T20:05:01.915Z,30.77
2023-02-16T20:07:51.818Z,32.33
2023-02-16T20:10:44.241Z,38.25
2023-02-16T20:13:35.922Z,33.38
2023-02-16T20:16:26.934Z,34.75
2023-02-16T20:19:17.596Z,29.60
2023-02-16T20:22:08.057Z,21.45
2023-02-16T20:24:59.394Z,34.63
2023-02-16T20:27:57.734Z,14.15
2023-02-16T20:30:49.323Z,17.05
2023-02-16T20:33:39.856Z,12.25
2023-02-16T20:36:31.584Z,11.15
2023-02-16T20:39:22.676Z,16.55
2023-02-16T20:42:12.563Z,11.52
2023-02-16T20:45:03.682Z,11.50
2023-02-16T20:47:53.878Z,11.77
2023-02-16T20:50:46.174Z,16.13
2023-02-16T20:53:36.278Z,9.30
2023-02-16T20:56:28.343Z,10.55
2023-02-16T20:59:18.230Z,9.23
2023-02-16T21:02:11.202Z,11.00
2023-02-16T21:05:01.533Z,10.52
2023-02-16T21:07:51.893Z,12.48
2023-02-16T21:10:41.848Z,11.50
2023-02-16T21:13:32.886Z,10.68
2023-02-16T21:16:23.353Z,11.48
2023-02-16T21:19:22.549Z,14.07
2023-02-16T21:22:13.180Z,10.70
2023-02-16T21:25:03.453Z,12.70
2023-02-16T21:27:53.419Z,13.85
2023-02-16T21:30:43.438Z,13.90
2023-02-16T21:33:34.094Z,9.75
2023-02-16T21:36:26.409Z,10.50
2023-02-16T21:39:16.441Z,10.93
2023-02-16T21:42:07.070Z,12.63
2023-02-16T21:45:12.494Z,13.27
2023-02-16T21:48:21.240Z,12.27
2023-02-16T21:51:13.306Z,16.55
2023-02-16T21:54:05.869Z,12.88
2023-02-16T21:56:55.830Z,10.82
2023-02-16T21:59:45.726Z,17.33
2023-02-16T22:02:36.131Z,12.02
2023-02-16T22:05:25.975Z,12.77
2023-02-16T22:08:15.870Z,18.30
2023-02-16T22:11:12.221Z,24.02
2023-02-16T22:14:04.047Z,10.93
2023-02-16T22:16:53.900Z,15.55
2023-02-16T22:19:44.408Z,9.02
2023-02-16T22:22:34.337Z,15.38
2023-02-16T22:25:24.538Z,9.45
2023-02-16T22:28:14.545Z,8.35
2023-02-16T22:31:09.130Z,9.57
2023-02-16T22:34:08.524Z,9.88
2023-02-16T22:36:58.756Z,8.10
2023-02-16T22:39:49.140Z,13.55
2023-02-16T22:42:39.599Z,8.57
2023-02-16T22:45:34.540Z,6.93
2023-02-16T22:48:26.150Z,14.63
2023-02-16T22:51:17.279Z,7.35
2023-02-16T22:54:07.863Z,15.48
2023-02-16T22:56:58.306Z,7.72
2023-02-16T22:59:48.285Z,6.80
2023-02-16T23:02:38.478Z,8.15
2023-02-16T23:05:30.340Z,8.55
2023-02-16T23:08:22.170Z,8.05
2023-02-16T23:11:13.075Z,11.48
2023-02-16T23:14:04.473Z,10.50
2023-02-16T23:16:54.953Z,6.40
2023-02-16T23:19:44.786Z,9.93
2023-02-16T23:22:34.608Z,10.05
2023-02-16T23:25:33.753Z,13.07
2023-02-16T23:28:23.633Z,10.82
2023-02-16T23:31:13.701Z,8.30
2023-02-16T23:34:05.386Z,9.80
2023-02-16T23:36:55.064Z,10.32
2023-02-16T23:39:44.999Z,12.50
2023-02-16T23:42:35.482Z,10.30
2023-02-16T23:45:25.515Z,9.13
2023-02-16T23:48:15.444Z,14.00
2023-02-16T23:51:05.733Z,7.82
2023-02-16T23:53:55.982Z,13.02
2023-02-16T23:56:45.788Z,8.93
2023-02-16T23:59:36.084Z,8.43
